Aviation Digital Data Service (ADDS)

Output produced by METARs form (1926 UTC 27 May 2017)
found at http://aviationweather.gov/adds/metars/
 
KJST 271740Z 2718/2818 19005KT P6SM VCSH OVC005 
     FM280300 VRB02KT 3SM -DZ BR VCFG BKN004 OVC010 
     FM281200 14008G15KT 4SM BR VCSH BKN008 OVC020